Time;durP1;ratioP1;P1;durP2;ratioP2;P2;SDS_P1;SDS_P2;PMS_P1;PMS_P2;Temp;Humidity;BMP_temperature;BMP_pressure;BME280_temperature;BME280_humidity;BME280_pressure;Samples;Min_cycle;Max_cycle;Signal;HPM_P1;HPM_P2
2021/08/03 00:00:10;;;;;;;2.67;1.10;;;;;;;13.80;87.75;100613.63;5113053;28;20272;-69
2021/08/03 00:02:38;;;;;;;4.03;1.27;;;;;;;13.81;87.66;100615.31;5111819;28;20668;-68
2021/08/03 00:05:04;;;;;;;1.60;1.10;;;;;;;13.81;87.78;100614.47;5111797;28;20197;-67
2021/08/03 00:07:31;;;;;;;2.13;1.00;;;;;;;13.76;87.74;100610.28;5111718;28;20243;-68
2021/08/03 00:09:56;;;;;;;3.43;1.20;;;;;;;13.75;87.91;100613.94;5112008;28;20181;-68
2021/08/03 00:12:22;;;;;;;2.43;1.10;;;;;;;13.72;88.36;100611.44;5094767;28;20178;-68
2021/08/03 00:14:52;;;;;;;6.83;1.60;;;;;;;13.71;88.43;100611.53;5113082;28;20193;-68
2021/08/03 00:17:23;;;;;;;3.27;1.20;;;;;;;13.63;88.73;100613.91;5112875;28;20177;-68
2021/08/03 00:19:49;;;;;;;3.27;1.30;;;;;;;13.60;89.30;100612.28;5112946;28;20568;-67
2021/08/03 00:22:14;;;;;;;2.53;1.17;;;;;;;13.57;89.57;100615.19;5113135;28;20178;-68
2021/08/03 00:24:39;;;;;;;3.23;1.33;;;;;;;13.53;90.11;100619.06;5112720;28;20210;-67
2021/08/03 00:27:06;;;;;;;5.00;1.20;;;;;;;13.48;90.36;100623.00;5112092;28;20185;-68
2021/08/03 00:29:32;;;;;;;3.33;1.37;;;;;;;13.47;90.54;100623.97;5112876;28;20173;-68
2021/08/03 00:31:58;;;;;;;1.97;1.10;;;;;;;13.41;90.75;100619.91;5111476;28;20184;-68
2021/08/03 00:34:24;;;;;;;2.73;1.00;;;;;;;13.40;90.94;100623.53;5112632;28;20204;-69
2021/08/03 00:36:49;;;;;;;2.90;1.10;;;;;;;13.39;91.21;100617.31;5116419;28;20178;-67
2021/08/03 00:39:15;;;;;;;4.00;1.53;;;;;;;13.35;91.24;100612.25;5115012;28;20177;-67
2021/08/03 00:41:44;;;;;;;5.47;1.70;;;;;;;13.31;91.52;100614.28;5116280;28;20177;-68
2021/08/03 00:44:09;;;;;;;1.80;1.40;;;;;;;13.31;91.79;100618.78;5114953;28;20194;-68
2021/08/03 00:46:35;;;;;;;3.10;1.20;;;;;;;13.26;91.68;100608.38;5116465;28;20664;-68
2021/08/03 00:49:00;;;;;;;5.10;1.30;;;;;;;13.23;91.93;100618.44;5097791;28;20649;-68
2021/08/03 00:51:25;;;;;;;2.93;1.50;;;;;;;13.25;91.81;100609.34;5116066;28;20176;-68
2021/08/03 00:53:51;;;;;;;3.30;1.83;;;;;;;13.23;91.84;100615.75;5115075;28;20229;-68
2021/08/03 00:56:16;;;;;;;2.23;1.20;;;;;;;13.16;92.29;100617.97;5115956;28;20173;-68
2021/08/03 00:58:42;;;;;;;2.13;1.47;;;;;;;13.12;92.58;100611.97;5116122;28;20177;-68
2021/08/03 01:01:07;;;;;;;3.97;1.50;;;;;;;13.08;93.24;100620.31;5116080;28;20181;-68
2021/08/03 01:03:33;;;;;;;3.70;1.37;;;;;;;13.02;93.72;100618.03;5115875;28;20174;-68
2021/08/03 01:06:13;;;;;;;6.00;1.63;;;;;;;12.99;93.55;100621.75;5115138;28;20188;-68
2021/08/03 01:09:02;;;;;;;4.67;1.30;;;;;;;12.91;94.51;100623.22;5115843;28;20614;-68
2021/08/03 01:11:36;;;;;;;5.23;1.40;;;;;;;13.00;94.52;100622.59;5097381;28;20609;-68
2021/08/03 01:14:13;;;;;;;3.83;1.50;;;;;;;12.97;94.60;100623.69;5114850;28;20222;-68
2021/08/03 01:16:50;;;;;;;4.40;1.63;;;;;;;13.05;93.87;100625.88;5114459;28;20214;-68
2021/08/03 01:19:22;;;;;;;4.20;1.40;;;;;;;13.01;94.40;100627.03;5114396;28;20201;-69
2021/08/03 01:21:54;;;;;;;1.43;1.30;;;;;;;13.01;94.50;100627.03;5114505;28;20181;-68
2021/08/03 01:24:45;;;;;;;3.33;1.43;;;;;;;13.04;94.72;100624.16;5114127;28;20225;-68
2021/08/03 01:27:19;;;;;;;2.17;1.20;;;;;;;13.08;94.41;100626.53;5114754;28;20257;-68
2021/08/03 01:29:47;;;;;;;2.37;1.20;;;;;;;13.14;94.26;100625.25;5115944;28;20165;-67
2021/08/03 01:32:14;;;;;;;3.60;1.60;;;;;;;13.19;93.88;100633.88;5115222;28;20184;-67
2021/08/03 01:34:42;;;;;;;5.90;1.90;;;;;;;13.34;93.19;100637.31;5114621;28;20185;-68
2021/08/03 01:37:08;;;;;;;2.73;1.30;;;;;;;13.42;93.36;100643.06;5113981;28;20181;-68
2021/08/03 01:39:36;;;;;;;3.63;1.30;;;;;;;13.42;93.56;100635.88;5114291;28;20174;-67
2021/08/03 01:42:04;;;;;;;4.00;1.30;;;;;;;13.39;93.99;100640.59;5115169;28;20200;-68
2021/08/03 01:44:31;;;;;;;3.40;1.70;;;;;;;13.40;94.27;100631.59;5115648;28;20324;-68
2021/08/03 01:46:57;;;;;;;2.37;1.00;;;;;;;13.43;93.92;100632.22;5114088;28;20182;-68
2021/08/03 01:49:23;;;;;;;4.37;1.37;;;;;;;13.42;93.97;100637.69;5113715;28;20641;-68
2021/08/03 01:51:49;;;;;;;3.43;1.30;;;;;;;13.43;93.91;100640.28;5115311;28;20169;-68
2021/08/03 01:54:16;;;;;;;1.90;1.20;;;;;;;13.49;93.93;100639.00;5115338;28;20247;-68
2021/08/03 01:56:43;;;;;;;6.27;1.30;;;;;;;13.45;94.06;100643.72;5113781;28;20173;-68
2021/08/03 01:59:08;;;;;;;1.60;1.10;;;;;;;13.51;93.70;100650.47;5113708;28;20174;-68
2021/08/03 02:01:35;;;;;;;3.00;1.23;;;;;;;13.48;94.00;100647.16;5114918;28;20173;-68
2021/08/03 02:04:01;;;;;;;2.57;1.20;;;;;;;13.42;94.58;100645.75;5113810;28;20202;-68
2021/08/03 02:06:27;;;;;;;5.80;1.40;;;;;;;13.40;94.79;100642.31;5113959;28;20630;-68
2021/08/03 02:08:59;;;;;;;2.57;1.10;;;;;;;13.36;94.92;100644.31;5122417;28;20174;-68
2021/08/03 02:11:28;;;;;;;3.20;1.20;;;;;;;13.30;95.77;100642.03;5122318;28;20176;-68
2021/08/03 02:13:53;;;;;;;2.30;1.30;;;;;;;13.32;96.10;100641.94;5116437;28;20189;-68
2021/08/03 02:16:18;;;;;;;5.13;1.20;;;;;;;13.34;95.69;100643.56;5113570;28;20177;-68
2021/08/03 02:18:46;;;;;;;2.73;1.17;;;;;;;13.31;96.33;100643.75;5114581;28;20176;-67
2021/08/03 02:21:15;;;;;;;3.43;1.33;;;;;;;13.34;95.66;100650.72;5114732;28;20165;-68
2021/08/03 02:23:41;;;;;;;7.53;1.50;;;;;;;13.38;96.11;100652.25;5112948;28;20327;-68
2021/08/03 02:26:10;;;;;;;2.97;1.20;;;;;;;13.32;96.60;100644.63;5113096;28;20200;-68
2021/08/03 02:28:36;;;;;;;2.50;1.13;;;;;;;13.24;96.66;100646.97;5113038;28;20201;-68
2021/08/03 02:31:09;;;;;;;4.03;1.40;;;;;;;13.26;96.64;100653.94;5113051;28;20580;-68
2021/08/03 02:33:37;;;;;;;6.30;1.53;;;;;;;13.30;96.20;100663.47;5113040;28;20162;-68
2021/08/03 02:36:04;;;;;;;2.10;1.20;;;;;;;13.27;96.37;100654.78;5113050;28;20254;-67
2021/08/03 02:38:33;;;;;;;4.30;1.37;;;;;;;13.17;96.97;100645.63;5113520;28;20174;-68
2021/08/03 02:40:58;;;;;;;2.60;1.37;;;;;;;13.12;97.47;100662.00;5113005;28;20185;-69
2021/08/03 02:43:25;;;;;;;4.57;1.50;;;;;;;13.11;97.32;100657.63;5112874;28;20579;-67
2021/08/03 02:45:53;;;;;;;2.13;1.27;;;;;;;13.10;97.66;100662.13;5113730;28;20209;-67
2021/08/03 02:48:21;;;;;;;2.87;1.40;;;;;;;13.14;97.31;100654.72;5113022;28;20276;-68
2021/08/03 02:50:46;;;;;;;5.10;1.70;;;;;;;13.13;97.44;100666.41;5112777;28;20690;-68
2021/08/03 02:53:19;;;;;;;2.67;1.23;;;;;;;13.10;97.59;100670.16;5112707;28;20176;-68
2021/08/03 02:55:49;;;;;;;3.80;1.30;;;;;;;13.12;97.80;100673.59;5112736;28;20238;-68
2021/08/03 02:58:18;;;;;;;3.13;1.30;;;;;;;13.10;98.50;100670.16;5112281;28;20193;-67
2021/08/03 03:00:44;;;;;;;3.77;1.87;;;;;;;13.08;99.05;100676.56;5112783;28;20174;-68
2021/08/03 03:03:15;;;;;;;3.67;1.53;;;;;;;13.03;99.72;100673.34;5112756;28;20511;-68
2021/08/03 03:05:42;;;;;;;3.43;1.33;;;;;;;12.93;100.00;100670.38;5114118;28;20292;-68
2021/08/03 03:08:10;;;;;;;3.43;1.53;;;;;;;13.07;99.34;100680.22;5112790;28;20201;-67
2021/08/03 03:10:37;;;;;;;6.07;1.70;;;;;;;13.10;99.18;100677.34;5112967;28;20170;-67
2021/08/03 03:13:10;;;;;;;1.60;1.30;;;;;;;13.13;98.75;100679.81;5112403;28;20181;-69
2021/08/03 03:15:36;;;;;;;5.23;1.73;;;;;;;13.07;99.11;100678.41;5112622;28;20238;-67
2021/08/03 03:18:01;;;;;;;2.60;1.40;;;;;;;13.03;99.50;100681.38;5113584;28;20170;-68
2021/08/03 03:20:28;;;;;;;3.60;1.57;;;;;;;12.99;99.22;100682.50;5112013;28;20177;-68
2021/08/03 03:22:54;;;;;;;3.43;1.43;;;;;;;12.93;99.88;100674.88;5112196;28;20546;-67
2021/08/03 03:25:23;;;;;;;5.77;1.60;;;;;;;12.94;99.67;100676.59;5113077;28;20692;-68
2021/08/03 03:27:50;;;;;;;5.03;1.80;;;;;;;12.94;99.96;100676.59;5112120;28;20178;-68
2021/08/03 03:30:17;;;;;;;3.43;1.77;;;;;;;12.93;100.00;100685.59;5111930;28;20179;-67
2021/08/03 03:32:44;;;;;;;2.80;1.87;;;;;;;12.94;100.00;100692.66;5111991;28;20174;-67
2021/08/03 03:35:10;;;;;;;3.23;1.60;;;;;;;12.89;100.00;100697.47;5112095;28;20666;-68
2021/08/03 03:37:36;;;;;;;2.37;1.70;;;;;;;12.92;100.00;100699.94;5111978;28;20234;-68
2021/08/03 03:40:02;;;;;;;3.47;1.50;;;;;;;12.99;100.00;100706.63;5113057;28;20214;-67
2021/08/03 03:42:33;;;;;;;3.67;1.63;;;;;;;12.98;100.00;100696.88;5112010;28;20173;-68
2021/08/03 03:44:59;;;;;;;4.43;1.70;;;;;;;13.12;100.00;100700.38;5111897;28;20189;-68
2021/08/03 03:47:29;;;;;;;3.80;1.63;;;;;;;13.24;99.09;100705.91;5113321;28;20184;-69
2021/08/03 03:50:02;;;;;;;5.97;1.90;;;;;;;13.15;100.00;100705.53;5112451;28;20204;-68
2021/08/03 03:52:32;;;;;;;4.20;1.70;;;;;;;13.31;99.47;100708.09;5112082;28;20158;-68
2021/08/03 03:54:57;;;;;;;3.30;1.50;;;;;;;13.29;99.21;100712.69;5112988;28;20182;-67
2021/08/03 03:57:23;;;;;;;3.33;1.77;;;;;;;13.23;99.97;100715.78;5112215;28;20186;-67
2021/08/03 03:59:49;;;;;;;4.40;1.70;;;;;;;13.21;99.90;100717.69;5111936;28;20243;-67
2021/08/03 04:02:15;;;;;;;2.83;1.80;;;;;;;13.15;100.00;100718.06;5111765;28;20165;-68
2021/08/03 04:04:41;;;;;;;4.40;1.70;;;;;;;13.23;99.67;100718.47;5111576;28;20190;-68
2021/08/03 04:07:06;;;;;;;2.27;1.50;;;;;;;13.20;100.00;100717.81;5113014;28;20182;-68
2021/08/03 04:09:32;;;;;;;2.73;1.57;;;;;;;13.35;100.00;100717.63;5115032;28;20208;-68
2021/08/03 04:11:57;;;;;;;3.40;1.63;;;;;;;13.38;99.63;100717.47;5117277;28;20173;-68
2021/08/03 04:14:27;;;;;;;3.00;1.90;;;;;;;13.61;98.39;100715.06;5116993;28;20197;-68
2021/08/03 04:16:54;;;;;;;3.50;1.37;;;;;;;13.58;98.62;100712.59;5116997;28;20166;-67
2021/08/03 04:19:20;;;;;;;1.87;1.37;;;;;;;13.65;98.06;100703.16;5116688;28;20178;-68
2021/08/03 04:21:46;;;;;;;4.77;1.83;;;;;;;13.64;98.48;100714.84;5116723;28;20261;-67
2021/08/03 04:24:12;;;;;;;4.23;1.50;;;;;;;13.73;97.78;100714.22;5117867;22;20201;-70
2021/08/03 04:26:38;;;;;;;4.17;1.63;;;;;;;13.76;97.08;100708.66;5078654;28;20624;-68
2021/08/03 04:29:04;;;;;;;4.67;1.70;;;;;;;13.76;96.87;100709.53;5096028;28;20175;-68
2021/08/03 04:31:29;;;;;;;3.20;1.50;;;;;;;13.70;97.75;100704.56;5061205;28;20209;-68
2021/08/03 04:33:54;;;;;;;3.57;1.97;;;;;;;13.61;98.28;100715.06;5078129;28;20178;-68
2021/08/03 04:36:19;;;;;;;5.80;2.20;;;;;;;13.57;98.67;100710.88;5078022;28;20562;-67
2021/08/03 04:38:45;;;;;;;5.70;2.13;;;;;;;13.53;98.60;100712.91;5096542;28;20170;-68
2021/08/03 04:41:10;;;;;;;3.63;2.13;;;;;;;13.66;98.62;100718.28;5077914;28;20174;-68
2021/08/03 04:43:35;;;;;;;3.80;2.07;;;;;;;13.67;98.00;100712.81;5096284;28;20181;-67
2021/08/03 04:46:01;;;;;;;5.27;1.93;;;;;;;13.68;98.53;100711.00;5077618;28;20682;-67
2021/08/03 04:48:26;;;;;;;5.90;1.97;;;;;;;13.72;97.69;100713.34;5077940;28;20174;-67
2021/08/03 04:50:51;;;;;;;6.60;2.40;;;;;;;13.73;97.58;100714.22;5077707;28;20279;-68
2021/08/03 04:53:16;;;;;;;7.87;2.10;;;;;;;13.70;97.90;100709.06;5095399;28;20239;-68
2021/08/03 04:55:42;;;;;;;4.07;2.20;;;;;;;13.76;97.88;100711.34;5095709;28;20191;-68
2021/08/03 04:58:07;;;;;;;4.47;2.20;;;;;;;13.72;97.98;100720.53;5077399;28;20170;-68
2021/08/03 05:00:32;;;;;;;4.67;2.17;;;;;;;13.83;97.60;100709.97;5095440;28;20267;-67
2021/08/03 05:02:58;;;;;;;5.23;1.93;;;;;;;13.89;97.00;100712.22;5095492;28;20209;-67
2021/08/03 05:05:27;;;;;;;3.30;1.77;;;;;;;14.02;96.43;100707.72;5095295;28;20194;-69
2021/08/03 05:07:59;;;;;;;4.97;1.93;;;;;;;14.21;94.89;100714.50;5095444;28;20182;-68
2021/08/03 05:10:25;;;;;;;3.57;1.80;;;;;;;14.33;94.41;100716.31;5077028;28;20170;-68
2021/08/03 05:12:51;;;;;;;3.43;1.83;;;;;;;14.55;92.42;100718.41;5076836;28;20223;-69
2021/08/03 05:15:16;;;;;;;6.13;2.23;;;;;;;14.77;90.89;100717.69;5095227;28;20264;-69
2021/08/03 05:17:42;;;;;;;3.03;1.67;;;;;;;14.78;90.36;100720.28;5095058;28;20170;-68
2021/08/03 05:20:07;;;;;;;3.90;1.67;;;;;;;14.76;90.98;100715.97;5094797;28;20584;-69
2021/08/03 05:22:33;;;;;;;4.47;1.93;;;;;;;14.70;90.49;100717.28;5076726;28;20261;-68
2021/08/03 05:25:01;;;;;;;2.80;1.50;;;;;;;14.70;91.02;100714.59;5094979;28;20236;-68
2021/08/03 05:27:26;;;;;;;5.73;1.70;;;;;;;14.65;91.55;100720.31;5077393;28;20185;-68
2021/08/03 05:29:52;;;;;;;9.23;1.90;;;;;;;14.60;92.15;100710.88;5076927;28;20174;-69
2021/08/03 05:32:17;;;;;;;5.30;2.00;;;;;;;14.57;93.08;100716.47;5095131;28;20174;-69
2021/08/03 05:34:42;;;;;;;5.23;2.27;;;;;;;14.62;91.72;100717.84;5095007;28;20190;-68
2021/08/03 05:37:08;;;;;;;5.40;2.10;;;;;;;14.64;92.11;100717.72;5094658;28;20304;-68
2021/08/03 05:39:33;;;;;;;6.40;2.27;;;;;;;14.67;91.08;100721.06;5094687;28;20519;-68
2021/08/03 05:42:03;;;;;;;6.57;2.07;;;;;;;14.62;92.05;100725.91;5076421;28;20181;-68
2021/08/03 05:44:28;;;;;;;4.67;2.03;;;;;;;14.67;91.62;100730.94;5076418;28;20297;-68
2021/08/03 05:46:53;;;;;;;3.40;2.10;;;;;;;14.66;91.85;100730.09;5094303;28;20210;-68
2021/08/03 05:49:19;;;;;;;4.83;2.57;;;;;;;14.71;91.45;100732.44;5076225;28;20259;-68
2021/08/03 05:51:44;;;;;;;5.63;2.20;;;;;;;14.78;91.16;100730.16;5094483;28;20642;-69
2021/08/03 05:54:10;;;;;;;3.00;1.80;;;;;;;14.83;90.09;100738.75;5076294;28;20203;-68
2021/08/03 05:56:37;;;;;;;4.17;1.80;;;;;;;14.89;90.26;100738.34;5094552;28;20178;-70
2021/08/03 05:59:02;;;;;;;8.70;2.40;;;;;;;15.02;90.51;100739.16;5075937;28;20174;-68
2021/08/03 06:01:28;;;;;;;5.90;1.73;;;;;;;15.08;88.85;100737.84;5094400;28;20665;-68
2021/08/03 06:03:53;;;;;;;4.63;1.90;;;;;;;15.07;88.50;100723.53;5094513;28;20173;-70
2021/08/03 06:06:20;;;;;;;3.47;1.97;;;;;;;15.08;87.79;100735.16;5094504;28;20651;-69
2021/08/03 06:08:45;;;;;;;3.63;1.60;;;;;;;15.15;87.24;100729.22;5059311;28;20604;-68
2021/08/03 06:11:22;;;;;;;4.43;1.77;;;;;;;15.16;87.86;100733.59;5075768;28;20174;-68
2021/08/03 06:13:49;;;;;;;3.03;2.00;;;;;;;15.26;88.07;100731.97;5076523;28;20310;-68
2021/08/03 06:16:16;;;;;;;3.57;1.70;;;;;;;15.39;86.04;100734.63;5075885;28;20739;-67
2021/08/03 06:18:44;;;;;;;3.03;1.30;;;;;;;15.45;83.92;100719.84;5059302;28;20654;-70
2021/08/03 06:21:09;;;;;;;4.53;1.80;;;;;;;15.54;83.14;100727.22;5094321;28;20189;-68
2021/08/03 06:23:36;;;;;;;3.93;1.67;;;;;;;15.62;82.88;100732.94;5075718;28;20546;-68
2021/08/03 06:26:03;;;;;;;4.67;3.17;;;;;;;15.67;82.14;100722.69;5075496;28;20229;-68
2021/08/03 06:28:28;;;;;;;6.43;3.20;;;;;;;15.76;83.32;100734.56;5093886;28;20196;-67
2021/08/03 06:30:53;;;;;;;3.17;1.30;;;;;;;15.85;81.07;100733.84;5059602;28;20174;-68
2021/08/03 06:33:22;;;;;;;4.47;1.83;;;;;;;15.87;81.24;100726.53;5093851;28;20197;-68
2021/08/03 06:35:49;;;;;;;2.87;1.40;;;;;;;15.99;80.34;100731.00;5076085;28;20285;-69
2021/08/03 06:38:15;;;;;;;3.13;1.40;;;;;;;16.00;78.61;100721.94;5076124;28;20175;-69
2021/08/03 06:40:47;;;;;;;2.17;1.17;;;;;;;15.96;74.99;100725.81;5093989;28;20186;-69
2021/08/03 06:43:17;;;;;;;4.20;1.43;;;;;;;15.95;75.58;100727.66;5093863;28;20251;-69
2021/08/03 06:45:46;;;;;;;2.03;1.07;;;;;;;15.94;74.98;100728.63;5059047;28;20678;-69
2021/08/03 06:48:19;;;;;;;2.73;1.37;;;;;;;16.14;73.52;100734.31;5094110;28;20197;-68
2021/08/03 06:50:52;;;;;;;1.60;1.33;;;;;;;16.29;74.83;100730.41;5076303;28;20166;-69
2021/08/03 06:53:18;;;;;;;3.30;1.73;;;;;;;16.37;72.23;100730.69;5058916;28;20173;-69
2021/08/03 06:55:46;;;;;;;3.80;2.23;;;;;;;16.41;70.87;100731.31;5075300;28;20187;-69
2021/08/03 06:58:51;;;;;;;3.53;1.43;;;;;;;16.47;69.95;100731.69;5075483;28;20181;-69
2021/08/03 07:01:34;;;;;;;4.73;1.10;;;;;;;16.54;68.85;100726.66;5075938;28;20161;-69
2021/08/03 07:04:02;;;;;;;2.40;1.30;;;;;;;16.53;66.26;100736.56;5058583;28;20169;-70
2021/08/03 07:06:29;;;;;;;2.70;1.20;;;;;;;16.64;66.20;100733.03;5075165;28;20174;-69
2021/08/03 07:08:55;;;;;;;1.87;0.80;;;;;;;16.68;65.08;100742.59;5075518;28;20190;-69
2021/08/03 07:11:21;;;;;;;2.03;1.10;;;;;;;16.71;65.54;100733.41;5075272;28;20235;-69
2021/08/03 07:13:48;;;;;;;1.77;1.20;;;;;;;16.77;65.00;100738.34;5075534;28;20174;-69
2021/08/03 07:16:14;;;;;;;1.83;1.10;;;;;;;16.76;64.26;100736.63;5075030;28;20563;-69
2021/08/03 07:18:42;;;;;;;1.70;1.10;;;;;;;16.81;65.01;100729.88;5075505;28;20198;-70
2021/08/03 07:21:10;;;;;;;1.60;1.10;;;;;;;16.92;63.30;100737.09;5075074;28;20178;-70
2021/08/03 07:23:36;;;;;;;2.10;1.40;;;;;;;17.05;63.93;100731.56;5093075;28;20193;-70
2021/08/03 07:26:01;;;;;;;4.17;1.30;;;;;;;17.14;62.09;100745.16;5075381;28;20665;-70
2021/08/03 07:28:27;;;;;;;2.17;0.90;;;;;;;17.25;60.66;100754.22;5094165;28;20201;-69
2021/08/03 07:30:52;;;;;;;3.17;1.53;;;;;;;17.23;61.03;100748.94;5093827;28;20170;-68
2021/08/03 07:33:20;;;;;;;1.60;0.90;;;;;;;17.11;60.73;100748.13;5075100;28;20170;-68
2021/08/03 07:35:45;;;;;;;1.10;1.00;;;;;;;17.07;61.42;100745.75;5093495;28;20190;-67
2021/08/03 07:38:11;;;;;;;1.27;0.93;;;;;;;17.16;61.00;100756.69;5058235;28;20546;-68
2021/08/03 07:40:37;;;;;;;1.33;0.80;;;;;;;17.14;61.42;100758.66;5092907;28;20169;-69
2021/08/03 07:43:04;;;;;;;3.90;1.30;;;;;;;17.38;62.17;100750.38;5093050;28;20625;-70
2021/08/03 07:45:30;;;;;;;2.17;0.90;;;;;;;17.64;60.67;100760.84;5078693;28;20284;-68
2021/08/03 07:47:55;;;;;;;1.93;0.77;;;;;;;18.09;60.39;100753.44;5096802;28;20170;-68
2021/08/03 07:50:20;;;;;;;2.73;0.80;;;;;;;18.32;60.24;100751.47;5079275;28;20224;-68
2021/08/03 07:52:46;;;;;;;2.47;1.00;;;;;;;18.68;57.73;100742.88;5078592;28;20170;-68
2021/08/03 07:55:11;;;;;;;1.87;1.00;;;;;;;18.41;59.06;100751.50;5078671;28;20186;-69
2021/08/03 07:57:36;;;;;;;1.90;1.27;;;;;;;18.68;58.14;100750.13;5096580;28;20167;-69
2021/08/03 08:00:02;;;;;;;2.87;1.97;;;;;;;18.80;57.66;100751.75;5096845;28;20167;-68
2021/08/03 08:02:28;;;;;;;2.20;1.63;;;;;;;18.87;57.51;100752.91;5078498;28;20181;-69
2021/08/03 08:04:53;;;;;;;1.43;0.83;;;;;;;18.77;58.41;100757.41;5078542;28;20205;-69
2021/08/03 08:07:19;;;;;;;2.03;0.97;;;;;;;18.71;58.46;100753.41;5096912;28;20527;-69
2021/08/03 08:09:44;;;;;;;1.33;0.90;;;;;;;18.57;60.11;100748.31;5096333;28;20171;-69
2021/08/03 08:12:09;;;;;;;1.83;1.10;;;;;;;18.11;59.61;100746.91;5078515;28;20178;-69
2021/08/03 08:14:34;;;;;;;1.47;0.90;;;;;;;17.88;61.22;100736.38;5096419;28;20186;-69
2021/08/03 08:17:01;;;;;;;1.97;1.00;;;;;;;18.11;61.20;100748.75;5078276;28;20173;-69
2021/08/03 08:19:27;;;;;;;2.30;0.90;;;;;;;18.58;60.55;100746.47;5096181;28;20173;-69
2021/08/03 08:21:52;;;;;;;2.37;0.87;;;;;;;18.99;57.22;100759.09;5078186;28;20178;-69
2021/08/03 08:24:17;;;;;;;1.43;0.93;;;;;;;19.22;57.00;100747.03;5077714;28;20669;-69
2021/08/03 08:26:44;;;;;;;3.33;0.77;;;;;;;19.32;55.95;100741.63;5096664;28;20158;-69
2021/08/03 08:29:10;;;;;;;1.47;0.80;;;;;;;18.29;58.10;100749.03;5078273;28;20658;-69
2021/08/03 08:31:35;;;;;;;1.70;1.40;;;;;;;18.64;56.97;100749.53;5095922;28;20201;-69
2021/08/03 08:34:00;;;;;;;2.10;1.03;;;;;;;18.73;57.43;100750.56;5077813;28;20261;-69
2021/08/03 08:36:26;;;;;;;1.67;1.00;;;;;;;18.63;57.95;100749.69;5078361;28;20174;-69
2021/08/03 08:38:51;;;;;;;1.23;0.97;;;;;;;18.66;57.76;100747.56;5096072;28;20299;-69
2021/08/03 08:41:17;;;;;;;2.97;0.83;;;;;;;18.44;57.38;100744.97;5078104;28;20205;-69
2021/08/03 08:43:42;;;;;;;1.90;0.90;;;;;;;18.23;58.14;100754.97;5095645;28;20177;-69
2021/08/03 08:46:10;;;;;;;1.47;0.70;;;;;;;18.36;58.04;100742.09;5095510;28;20198;-69
2021/08/03 08:48:36;;;;;;;2.07;1.23;;;;;;;18.43;58.42;100751.38;5095633;28;20173;-69
2021/08/03 08:51:02;;;;;;;2.27;1.10;;;;;;;18.64;57.90;100746.84;5095707;28;20623;-68
2021/08/03 08:53:27;;;;;;;2.97;1.20;;;;;;;19.12;57.48;100748.88;5077446;28;20181;-69
2021/08/03 08:55:53;;;;;;;1.50;1.10;;;;;;;19.55;56.02;100748.56;5095065;28;20216;-69
2021/08/03 08:58:18;;;;;;;1.20;0.80;;;;;;;19.83;55.14;100741.47;5077258;28;20176;-69
2021/08/03 09:00:43;;;;;;;1.60;0.80;;;;;;;20.23;52.07;100743.97;5077552;28;20213;-69
2021/08/03 09:03:08;;;;;;;2.43;1.10;;;;;;;19.80;52.85;100744.44;5095309;28;20201;-69
2021/08/03 09:05:38;;;;;;;1.93;0.80;;;;;;;19.62;53.41;100736.16;5095170;28;20205;-68
2021/08/03 09:08:04;;;;;;;1.73;0.77;;;;;;;19.06;54.38;100738.59;5060315;28;20170;-69
2021/08/03 09:10:37;;;;;;;2.10;0.77;;;;;;;19.15;51.90;100745.03;5076958;28;20602;-69
2021/08/03 09:13:10;;;;;;;0.97;0.63;;;;;;;19.41;52.87;100750.78;5095454;28;20190;-69
2021/08/03 09:15:41;;;;;;;0.93;0.70;;;;;;;19.52;52.81;100748.81;5077330;28;20201;-69
2021/08/03 09:18:13;;;;;;;1.90;0.70;;;;;;;19.55;52.85;100748.56;5060270;28;20685;-69
2021/08/03 09:20:40;;;;;;;0.70;0.70;;;;;;;19.80;52.26;100738.19;5095122;28;20166;-69
2021/08/03 09:23:05;;;;;;;1.97;0.70;;;;;;;19.99;51.47;100738.16;5077072;28;20257;-69
2021/08/03 09:25:31;;;;;;;1.87;1.00;;;;;;;19.86;52.79;100746.59;5094612;28;20300;-70
2021/08/03 09:28:08;;;;;;;1.40;1.10;;;;;;;19.81;50.94;100738.03;5076821;28;20166;-69
2021/08/03 09:30:36;;;;;;;1.43;0.73;;;;;;;19.66;51.38;100743.00;5076727;28;20177;-69
2021/08/03 09:33:02;;;;;;;0.80;0.80;;;;;;;19.88;49.47;100743.72;5060044;28;20167;-69
2021/08/03 09:35:28;;;;;;;2.43;0.80;;;;;;;20.02;49.65;100740.56;5076692;28;20677;-69
2021/08/03 09:37:56;;;;;;;1.90;1.33;;;;;;;20.23;50.18;100732.28;5060006;28;20542;-69
2021/08/03 09:40:25;;;;;;;2.30;0.70;;;;;;;20.35;49.70;100728.41;5076603;28;20524;-69
2021/08/03 09:43:07;;;;;;;6.53;4.97;;;;;;;20.49;48.48;100729.84;5076578;28;20170;-69
2021/08/03 09:45:35;;;;;;;5.03;3.83;;;;;;;20.54;47.73;100730.25;5059559;28;20198;-69
2021/08/03 09:48:11;;;;;;;1.17;0.80;;;;;;;20.58;47.42;100735.22;5076335;28;20234;-69
2021/08/03 09:50:54;;;;;;;1.57;0.73;;;;;;;20.01;48.05;100727.19;5076254;28;20264;-69
2021/08/03 09:53:46;;;;;;;1.53;0.63;;;;;;;20.07;49.53;100735.59;5076469;28;20194;-69
2021/08/03 09:56:28;;;;;;;1.27;0.80;;;;;;;20.44;49.72;100729.41;5059266;28;20735;-68
2021/08/03 09:58:54;;;;;;;1.93;0.80;;;;;;;21.01;46.13;100739.19;5076150;28;20257;-68
2021/08/03 10:01:28;;;;;;;1.37;1.13;;;;;;;21.42;46.43;100745.97;5059300;28;20171;-68
2021/08/03 10:03:54;;;;;;;0.97;0.70;;;;;;;21.90;45.74;100735.72;5059215;28;20170;-69
2021/08/03 10:06:20;;;;;;;1.23;0.63;;;;;;;21.47;43.13;100738.22;5075947;28;20202;-68
2021/08/03 10:08:48;;;;;;;1.00;0.50;;;;;;;21.11;45.27;100739.13;5076002;28;20169;-68
2021/08/03 10:11:14;;;;;;;1.13;0.53;;;;;;;20.71;46.03;100737.59;5094028;28;20167;-68
2021/08/03 10:13:41;;;;;;;0.80;0.53;;;;;;;20.50;48.01;100726.97;5075846;28;20608;-70
2021/08/03 10:16:06;;;;;;;2.27;0.70;;;;;;;20.29;46.82;100734.41;5093908;28;20186;-68
2021/08/03 10:18:31;;;;;;;1.17;0.70;;;;;;;20.27;48.71;100739.97;5075691;28;20173;-68
2021/08/03 10:20:57;;;;;;;1.13;0.70;;;;;;;20.40;47.70;100733.41;5075787;28;20534;-68
2021/08/03 10:23:23;;;;;;;0.50;0.50;;;;;;;20.36;48.87;100729.25;5075947;28;20253;-68
2021/08/03 10:25:48;;;;;;;0.67;0.57;;;;;;;20.29;49.27;100737.97;5128499;22;20225;-68
2021/08/03 10:28:19;;;;;;;1.00;0.77;;;;;;;20.40;49.11;100731.56;5114296;28;20204;-69
2021/08/03 10:30:45;;;;;;;2.23;0.80;;;;;;;20.39;49.10;100734.38;5114629;28;20177;-69
2021/08/03 10:33:43;;;;;;;1.57;1.10;;;;;;;20.44;48.90;100734.81;5113106;28;20184;-69
2021/08/03 10:36:09;;;;;;;1.83;1.20;;;;;;;20.62;49.01;100733.06;5114776;28;20680;-68
2021/08/03 10:38:35;;;;;;;1.70;0.93;;;;;;;20.77;48.93;100739.72;5112941;28;20184;-68
2021/08/03 10:41:05;;;;;;;1.70;0.60;;;;;;;20.85;48.66;100742.56;5114560;28;20173;-68
2021/08/03 10:43:33;;;;;;;1.33;0.80;;;;;;;20.88;47.98;100735.97;5113508;28;20158;-69
2021/08/03 10:46:07;;;;;;;1.47;0.73;;;;;;;21.03;46.92;100734.47;5114095;28;20262;-69
2021/08/03 10:48:38;;;;;;;2.27;0.70;;;;;;;21.10;46.48;100737.41;5114331;28;20268;-68
2021/08/03 10:51:13;;;;;;;1.00;0.70;;;;;;;21.26;45.83;100734.94;5112830;28;20178;-68
2021/08/03 10:53:53;;;;;;;1.37;0.60;;;;;;;21.36;45.17;100735.72;5114158;28;20177;-69
2021/08/03 10:56:18;;;;;;;1.50;0.70;;;;;;;21.48;44.81;100737.19;5114043;28;20549;-69
2021/08/03 10:58:44;;;;;;;1.57;1.00;;;;;;;21.91;44.95;100723.84;5114277;28;20173;-69
2021/08/03 11:01:09;;;;;;;1.83;0.80;;;;;;;22.17;43.69;100726.66;5112772;28;20641;-67
2021/08/03 11:03:34;;;;;;;1.50;0.77;;;;;;;22.20;44.25;100731.78;5114189;28;20278;-69
2021/08/03 11:05:59;;;;;;;1.53;0.80;;;;;;;22.48;43.64;100725.16;5114286;28;20334;-69
2021/08/03 11:08:29;;;;;;;1.20;0.80;;;;;;;22.54;42.72;100723.66;5114279;28;20184;-69
2021/08/03 11:11:05;;;;;;;1.33;0.70;;;;;;;22.65;42.68;100716.06;5117957;28;20173;-68
2021/08/03 11:13:54;;;;;;;1.37;0.63;;;;;;;23.58;40.65;100718.88;5119732;28;20185;-69
2021/08/03 11:16:19;;;;;;;1.73;0.67;;;;;;;25.21;37.40;100720.31;5113261;28;20189;-68
2021/08/03 11:18:46;;;;;;;0.90;0.57;;;;;;;25.00;37.64;100711.91;5113497;28;20176;-69
2021/08/03 11:21:15;;;;;;;2.80;0.63;;;;;;;24.75;37.35;100721.19;5112829;28;20169;-68
2021/08/03 11:24:14;;;;;;;2.23;0.67;;;;;;;25.97;34.50;100712.31;5112435;28;20177;-68
2021/08/03 11:26:58;;;;;;;1.10;0.70;;;;;;;26.88;32.85;100714.84;5113545;28;20217;-69